NCAR-RAP Real-Time Weather Data

Output produced by METARs form (30 November 2015  18:44 UTC)
found at
Conditions at: K4O4 observed 30 November 2015  18:35 UTC
Temperature: 10.0°C (50°F)
Dewpoint: 8.0°C (46°F) [RH = 87%]
Pressure (altimeter): 30.01 inches Hg (1016.3 mb)
Winds: from the SW (230 degrees) at 5 MPH (4 knots; 2.1 m/s)
Visibility: 10 or more miles (16+ km)
Ceiling: 700 feet AGL
Clouds: overcast cloud deck at 700 feet AGL
Present Weather: automated observation with no human augmentation;
there may or may not be significant weather present at this time
K4O4 301835Z AUTO 23004KT 10SM OVC007 10/08 A3001 RMK AO2